Time;durP1;ratioP1;P1;durP2;ratioP2;P2;SDS_P1;SDS_P2;PMS_P1;PMS_P2;Temp;Humidity;BMP_temperature;BMP_pressure;BME280_temperature;BME280_humidity;BME280_pressure;Samples;Min_cycle;Max_cycle;Signal;HPM_P1;HPM_P2
2021/11/03 00:00:13;;;;;;;1.73;0.90;;;17.70;70.90;;;;;;10342403;28;20058;-53
2021/11/03 00:05:15;;;;;;;1.95;1.10;;;17.70;70.90;;;;;;10361505;28;20038;-53
2021/11/03 00:10:17;;;;;;;1.95;1.02;;;17.60;70.80;;;;;;10338002;28;20397;-55
2021/11/03 00:15:18;;;;;;;2.17;1.20;;;17.60;71.00;;;;;;10350647;28;20374;-50
2021/11/03 00:20:19;;;;;;;1.90;1.00;;;17.60;70.90;;;;;;10362844;28;20038;-53
2021/11/03 00:25:19;;;;;;;2.15;1.23;;;17.60;70.80;;;;;;10358567;28;20038;-53
2021/11/03 00:30:21;;;;;;;2.05;0.98;;;17.60;70.80;;;;;;10356024;28;20526;-54
2021/11/03 00:35:21;;;;;;;2.65;1.08;;;17.60;70.90;;;;;;10343469;28;20188;-53
2021/11/03 00:40:22;;;;;;;1.73;0.93;;;17.60;70.90;;;;;;10336610;28;20129;-52
2021/11/03 00:45:23;;;;;;;1.50;1.05;;;17.60;70.80;;;;;;10336043;28;20054;-53
2021/11/03 00:50:24;;;;;;;2.42;0.88;;;17.60;70.80;;;;;;10336768;28;20026;-51
2021/11/03 00:55:25;;;;;;;1.92;1.00;;;17.60;70.70;;;;;;10354771;28;20121;-54
2021/11/03 01:00:27;;;;;;;1.70;1.15;;;17.60;70.50;;;;;;10349172;28;20041;-53
2021/11/03 01:05:28;;;;;;;1.75;0.90;;;17.70;70.40;;;;;;10375646;28;20112;-54
2021/11/03 01:10:29;;;;;;;1.50;0.90;;;17.70;70.40;;;;;;10366551;28;20118;-53
2021/11/03 01:15:31;;;;;;;2.88;1.02;;;17.70;70.40;;;;;;10335580;28;20125;-54
2021/11/03 01:20:33;;;;;;;2.22;1.13;;;17.60;70.40;;;;;;10334853;28;20038;-51
2021/11/03 01:25:34;;;;;;;2.03;1.10;;;17.60;70.50;;;;;;10347861;28;20501;-54
2021/11/03 01:30:35;;;;;;;2.67;1.63;;;17.70;70.40;;;;;;10350142;28;20045;-53
2021/11/03 01:35:37;;;;;;;1.13;0.80;;;17.60;70.40;;;;;;10347779;28;20045;-54
2021/11/03 01:40:43;;;;;;;2.17;1.20;;;17.60;70.30;;;;;;10346049;28;20606;-55
2021/11/03 01:45:47;;;;;;;2.47;1.13;;;17.60;70.30;;;;;;10352165;28;20066;-50
2021/11/03 01:50:54;;;;;;;2.08;1.17;;;17.70;70.20;;;;;;10359356;28;20038;-52
2021/11/03 01:56:05;;;;;;;2.10;1.20;;;17.80;70.00;;;;;;10333816;28;20034;-53
2021/11/03 02:01:06;;;;;;;2.55;1.45;;;17.70;69.80;;;;;;10338345;28;20040;-52
2021/11/03 02:06:13;;;;;;;1.80;1.25;;;17.70;69.80;;;;;;10353456;28;20076;-52
2021/11/03 02:11:16;;;;;;;1.77;1.27;;;17.70;70.00;;;;;;10350974;28;20086;-52
2021/11/03 02:16:19;;;;;;;2.30;1.20;;;17.70;69.80;;;;;;10347062;28;20079;-53
2021/11/03 02:21:31;;;;;;;2.40;1.27;;;17.70;69.80;;;;;;10315154;28;20042;-52
2021/11/03 02:26:42;;;;;;;2.80;1.65;;;17.70;69.80;;;;;;10352269;28;20033;-57
2021/11/03 02:31:51;;;;;;;2.05;1.38;;;17.70;69.90;;;;;;10366144;28;20042;-56
2021/11/03 02:37:22;;;;;;;2.27;1.33;;;17.70;69.80;;;;;;10348689;28;20022;-54
2021/11/03 02:42:28;;;;;;;2.70;1.65;;;17.70;69.80;;;;;;10349639;28;20509;-53
2021/11/03 02:47:28;;;;;;;3.40;1.50;;;17.70;69.80;;;;;;10341203;28;20378;-53
2021/11/03 02:52:29;;;;;;;2.58;1.48;;;17.70;69.80;;;;;;10341812;28;20038;-53
2021/11/03 02:57:30;;;;;;;2.05;1.38;;;17.60;69.80;;;;;;10331132;28;20387;-53
2021/11/03 03:02:31;;;;;;;2.72;1.63;;;17.70;69.80;;;;;;10364344;28;20048;-53
2021/11/03 03:07:31;;;;;;;2.80;1.80;;;17.70;69.80;;;;;;10357211;28;20033;-53
2021/11/03 03:12:34;;;;;;;1.98;1.40;;;17.80;69.50;;;;;;10330521;28;20176;-54
2021/11/03 03:17:35;;;;;;;4.32;2.00;;;17.80;69.30;;;;;;10331423;28;20117;-53
2021/11/03 03:22:35;;;;;;;2.60;1.80;;;17.80;69.20;;;;;;10353633;28;20045;-54
2021/11/03 03:27:36;;;;;;;2.75;1.80;;;17.70;69.30;;;;;;10360494;28;20036;-53
2021/11/03 03:32:37;;;;;;;2.75;1.52;;;17.80;69.40;;;;;;10371570;28;20030;-53
2021/11/03 03:37:38;;;;;;;2.80;1.70;;;17.80;69.30;;;;;;10350494;28;20109;-54
2021/11/03 03:42:39;;;;;;;2.97;2.10;;;17.80;69.30;;;;;;10348703;28;20050;-53
2021/11/03 03:47:40;;;;;;;2.78;1.95;;;17.70;69.20;;;;;;10331490;28;20030;-53
2021/11/03 03:52:41;;;;;;;2.95;2.00;;;17.80;69.20;;;;;;10362639;28;20085;-54
2021/11/03 03:57:41;;;;;;;2.92;1.95;;;17.80;69.20;;;;;;10341283;28;20470;-54
2021/11/03 04:02:43;;;;;;;2.67;1.98;;;17.70;69.20;;;;;;10348463;28;20038;-55
2021/11/03 04:07:44;;;;;;;2.38;1.77;;;17.80;69.20;;;;;;10349862;28;20117;-54
2021/11/03 04:12:46;;;;;;;2.80;2.28;;;17.80;69.20;;;;;;10368901;28;20397;-53
2021/11/03 04:17:46;;;;;;;2.92;1.85;;;17.70;69.20;;;;;;10359337;28;20422;-53
2021/11/03 04:22:47;;;;;;;2.40;1.88;;;17.70;69.10;;;;;;10337169;28;20046;-54
2021/11/03 04:27:48;;;;;;;3.05;2.10;;;17.70;69.10;;;;;;10366729;28;20026;-54
2021/11/03 04:32:49;;;;;;;2.63;1.80;;;17.70;69.20;;;;;;10352349;28;20038;-52
2021/11/03 04:37:50;;;;;;;3.00;1.75;;;17.80;69.20;;;;;;10336862;28;20479;-54
2021/11/03 04:42:50;;;;;;;2.58;1.67;;;17.70;69.00;;;;;;10336218;28;20074;-52
2021/11/03 04:47:52;;;;;;;3.38;2.17;;;17.70;69.10;;;;;;10335558;28;20073;-52
2021/11/03 04:52:53;;;;;;;2.90;1.88;;;17.70;69.10;;;;;;10349713;28;20445;-54
2021/11/03 04:57:54;;;;;;;2.92;1.90;;;17.70;69.00;;;;;;10346923;28;20042;-54
2021/11/03 05:02:56;;;;;;;2.42;1.65;;;17.70;69.00;;;;;;10346907;28;20439;-53
2021/11/03 05:07:57;;;;;;;3.30;2.33;;;17.70;69.10;;;;;;10355740;28;20026;-54
2021/11/03 05:12:58;;;;;;;2.35;1.60;;;17.70;69.00;;;;;;10356994;28;20045;-54
2021/11/03 05:17:59;;;;;;;2.83;2.03;;;17.80;68.80;;;;;;10359975;28;20069;-55
2021/11/03 05:23:02;;;;;;;2.30;1.80;;;17.80;68.80;;;;;;10357883;28;20077;-52
2021/11/03 05:28:03;;;;;;;2.78;1.45;;;17.70;68.70;;;;;;10359648;28;20486;-55
2021/11/03 05:33:03;;;;;;;2.05;1.67;;;17.70;68.90;;;;;;10348632;28;20045;-54
2021/11/03 05:38:04;;;;;;;3.20;1.92;;;17.60;69.00;;;;;;10334669;28;20030;-55
2021/11/03 05:43:05;;;;;;;2.90;2.25;;;17.70;68.80;;;;;;10332622;28;20387;-52
2021/11/03 05:48:06;;;;;;;1.73;1.42;;;17.80;68.50;;;;;;10355825;28;20030;-52
2021/11/03 05:53:06;;;;;;;2.80;2.03;;;18.00;68.10;;;;;;10365408;28;20034;-53
2021/11/03 05:58:08;;;;;;;2.88;1.70;;;18.20;67.70;;;;;;10368678;28;20091;-55
2021/11/03 06:03:08;;;;;;;3.85;1.80;;;18.20;67.70;;;;;;10388872;28;20049;-52
2021/11/03 06:08:10;;;;;;;3.35;1.85;;;18.30;67.90;;;;;;10352309;28;20042;-55
2021/11/03 06:13:12;;;;;;;2.88;1.67;;;18.40;68.60;;;;;;10355676;28;20035;-52
2021/11/03 06:18:13;;;;;;;4.80;2.05;;;18.40;69.00;;;;;;10333369;28;20046;-52
2021/11/03 06:23:14;;;;;;;5.88;2.17;;;18.50;68.60;;;;;;10331468;28;20086;-55
2021/11/03 06:28:15;;;;;;;7.53;2.10;;;18.50;69.00;;;;;;10358804;28;20058;-54
2021/11/03 06:33:16;;;;;;;3.67;2.10;;;18.60;69.40;;;;;;10331656;28;20117;-57
2021/11/03 06:38:17;;;;;;;5.00;1.92;;;18.60;69.00;;;;;;10337323;28;20040;-56
2021/11/03 06:43:18;;;;;;;8.95;2.40;;;18.60;68.20;;;;;;10355387;28;20058;-56
2021/11/03 06:48:18;;;;;;;3.38;1.73;;;18.70;67.90;;;;;;10343731;28;20033;-54
2021/11/03 06:53:22;;;;;;;5.60;2.25;;;18.70;67.60;;;;;;10357410;28;20050;-56
2021/11/03 06:58:23;;;;;;;4.13;2.45;;;18.70;67.90;;;;;;10367558;28;20037;-58
2021/11/03 07:03:25;;;;;;;5.40;2.10;;;18.70;68.00;;;;;;10369427;28;20378;-56
2021/11/03 07:08:27;;;;;;;6.20;2.28;;;18.60;68.30;;;;;;10355027;28;20386;-55
2021/11/03 07:13:29;;;;;;;8.02;2.42;;;18.70;68.10;;;;;;10349209;28;20033;-56
2021/11/03 07:18:30;;;;;;;6.80;3.08;;;18.60;67.90;;;;;;10351964;28;20053;-55
2021/11/03 07:23:31;;;;;;;7.28;2.67;;;18.60;67.70;;;;;;10365850;28;20034;-54
2021/11/03 07:28:32;;;;;;;10.45;2.70;;;18.60;67.30;;;;;;10344711;28;20148;-55
2021/11/03 07:33:34;;;;;;;5.13;2.20;;;18.60;67.40;;;;;;10357265;28;20397;-55
2021/11/03 07:38:36;;;;;;;9.05;2.58;;;18.60;67.50;;;;;;10352569;28;20429;-56
2021/11/03 07:43:37;;;;;;;4.97;2.53;;;18.60;67.70;;;;;;10360956;28;20406;-54
2021/11/03 07:48:38;;;;;;;7.72;2.65;;;18.50;67.80;;;;;;10364678;28;20022;-54
2021/11/03 07:53:41;;;;;;;6.03;2.30;;;18.60;67.90;;;;;;10369377;28;20475;-55
2021/11/03 07:58:42;;;;;;;7.03;2.08;;;18.60;68.00;;;;;;10360883;28;20072;-54
2021/11/03 08:03:43;;;;;;;8.15;2.90;;;18.60;67.80;;;;;;10372908;28;20045;-55
2021/11/03 08:09:04;;;;;;;4.05;2.20;;;18.70;67.90;;;;;;10353586;28;20087;-57
2021/11/03 08:14:05;;;;;;;9.63;2.78;;;18.70;67.70;;;;;;10354977;28;20042;-52
2021/11/03 08:19:07;;;;;;;10.45;2.40;;;18.60;67.60;;;;;;10368629;28;20084;-55
2021/11/03 08:24:08;;;;;;;13.30;3.17;;;18.60;67.80;;;;;;10355978;28;20041;-53
2021/11/03 08:29:09;;;;;;;9.85;2.55;;;18.60;67.40;;;;;;10362471;28;20061;-53
2021/11/03 08:34:10;;;;;;;13.38;2.75;;;18.60;67.80;;;;;;10373221;28;20041;-53
2021/11/03 08:39:11;;;;;;;12.60;2.67;;;18.50;67.80;;;;;;10336739;28;20386;-54
2021/11/03 08:44:13;;;;;;;8.02;2.80;;;18.40;68.00;;;;;;10362645;28;20535;-54
2021/11/03 08:49:13;;;;;;;4.65;2.00;;;18.50;67.80;;;;;;10369397;28;20037;-55
2021/11/03 08:54:17;;;;;;;4.20;2.10;;;18.50;67.90;;;;;;10372226;28;20033;-55
2021/11/03 08:59:18;;;;;;;7.32;2.20;;;18.50;67.70;;;;;;10358987;28;20372;-54
2021/11/03 09:04:19;;;;;;;8.68;2.30;;;18.60;67.40;;;;;;10352199;28;20038;-54
2021/11/03 09:09:20;;;;;;;10.07;2.50;;;18.50;67.90;;;;;;10353359;28;20033;-54
2021/11/03 09:14:21;;;;;;;3.15;1.80;;;18.50;67.50;;;;;;10354110;28;20121;-54
2021/11/03 09:19:23;;;;;;;4.03;2.60;;;18.60;67.20;;;;;;10341323;28;20036;-53
2021/11/03 09:24:24;;;;;;;6.13;2.42;;;18.60;67.20;;;;;;10355304;28;20076;-55
2021/11/03 09:29:24;;;;;;;4.60;2.20;;;18.60;67.30;;;;;;10362055;28;20022;-55
2021/11/03 09:34:25;;;;;;;7.53;2.50;;;18.60;67.40;;;;;;10372309;28;20109;-54
2021/11/03 09:39:26;;;;;;;4.15;1.92;;;18.50;67.30;;;;;;10344544;28;20566;-54
2021/11/03 09:44:33;;;;;;;5.28;2.15;;;18.60;67.30;;;;;;10374296;28;20137;-55
2021/11/03 09:49:41;;;;;;;4.63;2.05;;;18.50;67.40;;;;;;10344480;28;20504;-53
2021/11/03 09:54:46;;;;;;;4.53;2.30;;;18.60;67.30;;;;;;10356685;28;20375;-54
2021/11/03 10:00:27;;;;;;;3.85;2.10;;;18.60;67.20;;;;;;10355228;28;20033;-54
2021/11/03 10:05:44;;;;;;;;;;;18.50;67.40;;;;;;10373772;28;20037;-54
2021/11/03 10:11:12;;;;;;;4.15;1.92;;;18.50;67.30;;;;;;10344859;28;19913;-53
2021/11/03 10:16:13;;;;;;;3.30;1.92;;;18.60;67.20;;;;;;10337070;28;20033;-54
2021/11/03 10:21:20;;;;;;;3.08;2.05;;;18.50;67.40;;;;;;10340884;28;20111;-53
2021/11/03 10:26:24;;;;;;;4.18;1.70;;;18.60;67.30;;;;;;10357522;28;20062;-54
2021/11/03 10:31:52;;;;;;;3.55;1.50;;;18.50;67.30;;;;;;10345455;28;20137;-54
2021/11/03 10:37:15;;;;;;;2.97;1.95;;;18.50;67.50;;;;;;10345933;28;20042;-52
2021/11/03 10:42:31;;;;;;;2.85;1.83;;;18.50;67.40;;;;;;10352399;28;20046;-54
2021/11/03 10:47:31;;;;;;;4.28;1.90;;;18.50;67.50;;;;;;10359076;28;20025;-54
2021/11/03 10:52:51;;;;;;;3.90;1.92;;;18.40;67.80;;;;;;10366292;28;20080;-55
2021/11/03 10:58:13;;;;;;;2.97;1.90;;;18.40;67.70;;;;;;10338743;28;20113;-55
2021/11/03 11:03:21;;;;;;;2.75;1.90;;;18.50;67.40;;;;;;10357900;28;20065;-54
2021/11/03 11:08:26;;;;;;;2.75;1.58;;;18.60;67.20;;;;;;10350601;28;20029;-55
2021/11/03 11:13:32;;;;;;;2.83;1.52;;;18.50;67.40;;;;;;10362821;28;20033;-54
2021/11/03 11:18:45;;;;;;;2.45;1.98;;;18.40;67.60;;;;;;10347400;28;20045;-54
2021/11/03 11:24:02;;;;;;;4.60;1.70;;;18.40;67.70;;;;;;10364918;28;20037;-54
2021/11/03 11:29:37;;;;;;;5.07;1.30;;;18.50;67.70;;;;;;10376159;28;20113;-54
2021/11/03 11:35:02;;;;;;;4.88;1.70;;;18.70;67.90;;;;;;10376753;28;20038;-56
2021/11/03 11:40:21;;;;;;;6.97;1.73;;;18.50;68.20;;;;;;10354027;28;20088;-54
2021/11/03 11:45:29;;;;;;;4.38;2.55;;;18.60;68.70;;;;;;10378734;28;20049;-53
2021/11/03 11:50:48;;;;;;;10.50;2.17;;;18.50;68.80;;;;;;10361054;28;20398;-55
2021/11/03 11:56:10;;;;;;;5.45;1.58;;;18.50;69.10;;;;;;10357071;28;20509;-57
2021/11/03 12:01:13;;;;;;;4.55;1.85;;;18.40;69.60;;;;;;10361937;28;20040;-56
2021/11/03 12:06:14;;;;;;;4.47;1.70;;;18.30;69.80;;;;;;10358765;28;20482;-57
2021/11/03 12:11:44;;;;;;;6.22;2.38;;;18.30;70.10;;;;;;10346491;28;20027;-56
2021/11/03 12:17:21;;;;;;;5.83;1.90;;;18.20;70.30;;;;;;10357579;28;20026;-53
2021/11/03 12:22:30;;;;;;;5.75;2.22;;;18.30;70.70;;;;;;10353678;28;20061;-55
2021/11/03 12:27:33;;;;;;;5.50;1.88;;;18.20;70.10;;;;;;10340464;28;20062;-56
2021/11/03 12:32:59;;;;;;;3.78;1.92;;;18.10;70.00;;;;;;10344267;28;20042;-55
2021/11/03 12:38:12;;;;;;;4.10;2.00;;;18.10;70.00;;;;;;10351749;28;20065;-54
2021/11/03 12:43:29;;;;;;;3.22;1.90;;;18.10;69.90;;;;;;10349932;28;20046;-56
2021/11/03 12:49:00;;;;;;;7.40;2.33;;;18.10;70.00;;;;;;10363587;28;20433;-56
2021/11/03 12:54:24;;;;;;;4.90;2.15;;;18.00;70.00;;;;;;10375108;28;20038;-55
2021/11/03 12:59:33;;;;;;;5.47;1.98;;;18.10;69.70;;;;;;10368287;28;20066;-56
2021/11/03 13:04:37;;;;;;;3.08;1.67;;;18.30;69.00;;;;;;10364951;28;20030;-56
2021/11/03 13:09:56;;;;;;;3.22;1.80;;;18.40;68.60;;;;;;10367698;28;20029;-56
2021/11/03 13:15:00;;;;;;;3.60;1.63;;;18.40;68.70;;;;;;10348997;28;20481;-56
2021/11/03 13:20:06;;;;;;;3.53;2.00;;;18.40;68.70;;;;;;10371174;28;20050;-56
2021/11/03 13:25:14;;;;;;;6.72;2.22;;;18.40;68.50;;;;;;10361724;28;20659;-53
2021/11/03 13:30:31;;;;;;;5.83;2.03;;;18.40;68.70;;;;;;10367079;28;20156;-55
2021/11/03 13:35:35;;;;;;;7.25;2.42;;;18.40;68.60;;;;;;10373726;28;20060;-55
2021/11/03 13:40:38;;;;;;;7.63;2.15;;;18.40;68.70;;;;;;10347593;28;20112;-57
2021/11/03 13:45:45;;;;;;;18.90;3.08;;;18.40;68.90;;;;;;10338164;28;20360;-54
2021/11/03 13:50:48;;;;;;;16.20;3.00;;;18.40;69.10;;;;;;10369752;28;20030;-51
2021/11/03 13:55:58;;;;;;;17.60;3.42;;;18.30;69.30;;;;;;10366944;28;20049;-52
2021/11/03 14:01:06;;;;;;;20.95;3.83;;;18.20;69.70;;;;;;10345405;28;20030;-54
2021/11/03 14:06:36;;;;;;;29.00;4.32;;;18.20;69.80;;;;;;10357498;28;20040;-55
2021/11/03 14:11:38;;;;;;;31.38;4.93;;;18.10;69.80;;;;;;10358327;28;20501;-55
2021/11/03 14:17:11;;;;;;;14.55;4.18;;;18.20;70.10;;;;;;10373026;28;20028;-54
2021/11/03 14:22:18;;;;;;;28.40;5.45;;;18.10;70.20;;;;;;10336734;28;20491;-55
2021/11/03 14:27:20;;;;;;;42.75;14.18;;;18.10;70.40;;;;;;10349019;28;20014;-57
2021/11/03 14:32:21;;;;;;;38.58;9.07;;;18.10;73.50;;;;;;10351159;28;20452;-55
2021/11/03 14:37:22;;;;;;;42.80;12.98;;;18.10;72.00;;;;;;10371691;28;20068;-57
2021/11/03 14:42:23;;;;;;;29.33;7.13;;;18.10;74.60;;;;;;10355208;28;20142;-52
2021/11/03 14:47:29;;;;;;;30.60;7.63;;;18.20;72.00;;;;;;10371171;28;20092;-55
2021/11/03 14:52:34;;;;;;;27.55;6.40;;;18.30;72.30;;;;;;10350976;28;20088;-57
2021/11/03 14:57:35;;;;;;;19.40;5.78;;;18.40;71.90;;;;;;10351961;28;20030;-56
2021/11/03 15:03:01;;;;;;;25.50;5.75;;;18.30;71.60;;;;;;10353357;28;20030;-57
2021/11/03 15:08:17;;;;;;;24.00;5.68;;;18.30;70.50;;;;;;10352921;28;20034;-59
2021/11/03 15:13:20;;;;;;;22.88;5.28;;;18.40;69.00;;;;;;10340479;28;20030;-58
2021/11/03 15:18:25;;;;;;;18.17;5.72;;;18.40;68.20;;;;;;10356338;28;20034;-58
2021/11/03 15:23:28;;;;;;;23.45;6.30;;;18.40;67.70;;;;;;10354998;28;20117;-57
2021/11/03 15:28:30;;;;;;;26.83;5.20;;;18.30;67.60;;;;;;10346578;28;20029;-58
2021/11/03 15:33:32;;;;;;;16.23;5.28;;;18.40;67.50;;;;;;10353058;28;20030;-56
2021/11/03 15:38:39;;;;;;;17.50;5.15;;;18.30;67.50;;;;;;10368832;28;20041;-59
2021/11/03 15:43:40;;;;;;;19.23;5.18;;;18.40;67.20;;;;;;10341163;28;20391;-58
2021/11/03 15:48:41;;;;;;;15.02;4.53;;;18.70;66.30;;;;;;10348784;28;20034;-58
2021/11/03 15:53:43;;;;;;;14.18;4.53;;;18.70;65.70;;;;;;10359055;28;20104;-58
2021/11/03 15:58:44;;;;;;;11.13;4.28;;;18.80;65.50;;;;;;10358478;28;20030;-58
2021/11/03 16:03:52;;;;;;;16.02;4.25;;;18.80;65.60;;;;;;10361155;28;20470;-58
2021/11/03 16:08:53;;;;;;;10.52;3.40;;;18.80;66.10;;;;;;10374416;28;20410;-57
2021/11/03 16:13:54;;;;;;;9.75;3.38;;;18.80;66.40;;;;;;10371703;28;20038;-58
2021/11/03 16:18:54;;;;;;;10.98;3.03;;;18.80;66.50;;;;;;10368493;28;20399;-56
2021/11/03 16:23:56;;;;;;;6.30;2.65;;;18.90;66.60;;;;;;10365648;28;20068;-58
2021/11/03 16:28:57;;;;;;;9.48;2.80;;;19.00;66.50;;;;;;10372871;28;20022;-58
2021/11/03 16:33:58;;;;;;;9.40;3.47;;;19.10;67.80;;;;;;10372311;28;20548;-58
2021/11/03 16:38:59;;;;;;;7.45;3.00;;;19.20;68.20;;;;;;10375378;28;20022;-58
2021/11/03 16:44:31;;;;;;;7.05;3.65;;;19.30;69.70;;;;;;10368114;28;20038;-58
2021/11/03 16:49:32;;;;;;;10.73;3.53;;;19.30;71.40;;;;;;10350730;28;20167;-55
2021/11/03 16:54:32;;;;;;;8.93;4.00;;;19.20;73.20;;;;;;10335352;28;20529;-53
2021/11/03 16:59:34;;;;;;;6.85;3.22;;;19.10;73.60;;;;;;10342159;28;20116;-51
2021/11/03 17:04:35;;;;;;;12.60;3.20;;;19.10;74.80;;;;;;10357449;28;20375;-54
2021/11/03 17:09:39;;;;;;;10.57;3.42;;;19.20;72.60;;;;;;10357432;28;20029;-53
2021/11/03 17:14:40;;;;;;;7.95;3.63;;;19.10;72.70;;;;;;10364692;28;20045;-56
2021/11/03 17:19:41;;;;;;;7.15;3.00;;;18.90;72.90;;;;;;10349554;28;20418;-54
2021/11/03 17:24:43;;;;;;;12.75;3.83;;;18.90;72.70;;;;;;10351232;28;20026;-53
2021/11/03 17:29:58;;;;;;;8.82;3.40;;;18.80;73.20;;;;;;10333604;28;20114;-52
2021/11/03 17:35:01;;;;;;;9.63;3.35;;;18.70;73.00;;;;;;10358998;28;20057;-55
2021/11/03 17:40:03;;;;;;;8.43;2.85;;;18.60;72.60;;;;;;10333667;28;20379;-53
2021/11/03 17:45:20;;;;;;;8.27;3.00;;;18.40;72.70;;;;;;10334246;28;20047;-54
2021/11/03 17:50:27;;;;;;;5.95;2.78;;;18.40;73.00;;;;;;10346259;28;20029;-53
2021/11/03 17:55:28;;;;;;;11.30;2.80;;;18.30;73.10;;;;;;10333918;28;20030;-54
2021/11/03 18:00:40;;;;;;;8.70;3.40;;;18.20;73.40;;;;;;10338514;28;20462;-55
2021/11/03 18:05:41;;;;;;;6.72;2.80;;;18.20;73.40;;;;;;10361342;28;20037;-53
2021/11/03 18:10:43;;;;;;;12.98;4.22;;;18.10;73.40;;;;;;10356758;28;20169;-55
2021/11/03 18:15:47;;;;;;;7.68;3.22;;;18.00;73.30;;;;;;10346247;28;20034;-54
2021/11/03 18:20:51;;;;;;;12.00;2.55;;;18.00;73.20;;;;;;10356106;28;20041;-53
2021/11/03 18:26:20;;;;;;;9.38;2.83;;;18.00;74.10;;;;;;10355279;28;20036;-55
2021/11/03 18:31:30;;;;;;;5.97;2.60;;;18.00;73.20;;;;;;10368341;28;20038;-52
2021/11/03 18:36:31;;;;;;;;;;;18.10;72.90;;;;;;10356812;28;20501;-53
2021/11/03 18:41:40;;;;;;;5.20;2.38;;;18.10;73.10;;;;;;10355635;28;19917;-54
2021/11/03 18:46:41;;;;;;;4.30;2.63;;;18.20;73.10;;;;;;10355856;28;20044;-54
2021/11/03 18:51:48;;;;;;;6.65;2.65;;;18.30;72.50;;;;;;10366945;28;20040;-53
2021/11/03 18:56:49;;;;;;;7.60;2.90;;;18.40;72.20;;;;;;10366640;28;20030;-54
2021/11/03 19:01:50;;;;;;;6.18;3.47;;;18.40;72.40;;;;;;10349533;28;20478;-55
2021/11/03 19:06:56;;;;;;;4.28;2.30;;;18.20;72.60;;;;;;10341934;28;20042;-52
2021/11/03 19:12:06;;;;;;;9.98;2.80;;;18.20;72.70;;;;;;10351349;28;20033;-54
2021/11/03 19:17:07;;;;;;;5.95;2.97;;;18.10;72.70;;;;;;10351016;28;20033;-54
2021/11/03 19:22:30;;;;;;;6.15;2.50;;;18.20;72.50;;;;;;10368473;28;20022;-54
2021/11/03 19:27:31;;;;;;;6.13;2.42;;;18.20;72.20;;;;;;10368414;28;20035;-56
2021/11/03 19:32:33;;;;;;;5.78;2.88;;;18.20;72.10;;;;;;10366424;28;20102;-56
2021/11/03 19:37:40;;;;;;;3.92;2.47;;;18.20;71.90;;;;;;10368207;28;20394;-56
2021/11/03 19:42:41;;;;;;;3.20;2.03;;;18.30;71.90;;;;;;10375943;28;20380;-56
2021/11/03 19:47:41;;;;;;;3.22;2.05;;;18.30;71.90;;;;;;10376015;28;20025;-56
2021/11/03 19:52:44;;;;;;;5.10;2.25;;;18.30;71.60;;;;;;10389393;28;20037;-57
2021/11/03 19:57:45;;;;;;;4.18;2.80;;;18.30;71.70;;;;;;10375359;28;20033;-56
2021/11/03 20:02:48;;;;;;;5.63;2.42;;;18.30;71.60;;;;;;10370388;28;20030;-56
2021/11/03 20:07:53;;;;;;;5.80;2.88;;;18.30;71.70;;;;;;10372907;28;20486;-56
2021/11/03 20:12:55;;;;;;;7.47;2.67;;;18.30;71.80;;;;;;10372135;28;20514;-57
2021/11/03 20:17:56;;;;;;;4.05;2.50;;;18.20;72.00;;;;;;10373267;28;20490;-56
2021/11/03 20:22:57;;;;;;;4.32;2.50;;;18.20;72.00;;;;;;10372417;28;20026;-57
2021/11/03 20:28:01;;;;;;;7.22;2.65;;;18.10;72.20;;;;;;10376616;28;20034;-57
2021/11/03 20:33:18;;;;;;;6.22;2.50;;;18.00;72.60;;;;;;10374743;28;20054;-58
2021/11/03 20:38:37;;;;;;;6.10;2.58;;;17.90;73.30;;;;;;10373516;28;20112;-57
2021/11/03 20:43:38;;;;;;;5.30;2.40;;;17.80;72.90;;;;;;10358218;28;20180;-58
2021/11/03 20:48:43;;;;;;;6.43;3.50;;;17.80;73.00;;;;;;10376928;28;20533;-57
2021/11/03 20:53:44;;;;;;;5.75;2.88;;;17.80;73.10;;;;;;10374540;28;20026;-58
2021/11/03 20:58:47;;;;;;;4.43;2.22;;;17.70;73.10;;;;;;10375213;28;20029;-56
2021/11/03 21:03:48;;;;;;;4.47;2.78;;;17.70;73.10;;;;;;10375008;28;20032;-57
2021/11/03 21:08:51;;;;;;;3.55;2.50;;;17.70;73.20;;;;;;10376203;28;20112;-56
2021/11/03 21:13:52;;;;;;;4.18;2.40;;;17.60;73.10;;;;;;10341982;28;20163;-57
2021/11/03 21:18:53;;;;;;;3.50;2.00;;;17.60;73.10;;;;;;10335249;28;20105;-57
2021/11/03 21:23:53;;;;;;;4.20;2.63;;;17.50;73.10;;;;;;10333894;28;20045;-57
2021/11/03 21:28:54;;;;;;;4.55;2.35;;;17.50;73.20;;;;;;10334916;28;20058;-57
2021/11/03 21:33:55;;;;;;;4.38;2.60;;;17.50;73.20;;;;;;10334806;28;20044;-55
2021/11/03 21:38:55;;;;;;;4.35;2.30;;;17.50;73.30;;;;;;10358212;28;20058;-57
2021/11/03 21:43:56;;;;;;;4.30;2.80;;;17.40;73.30;;;;;;10333925;28;20128;-58
2021/11/03 21:48:57;;;;;;;4.30;2.33;;;17.40;73.30;;;;;;10334011;28;20121;-57
2021/11/03 21:53:58;;;;;;;3.85;2.45;;;17.40;73.30;;;;;;10333852;28;20033;-57
2021/11/03 21:59:01;;;;;;;4.20;2.10;;;17.40;73.30;;;;;;10333786;28;20030;-56
2021/11/03 22:04:02;;;;;;;3.53;1.98;;;17.40;73.10;;;;;;10335612;28;20026;-57
2021/11/03 22:09:03;;;;;;;4.93;2.22;;;17.40;73.10;;;;;;10372669;28;20034;-58
2021/11/03 22:14:04;;;;;;;3.45;2.22;;;17.40;73.00;;;;;;10338195;28;20461;-58
2021/11/03 22:19:07;;;;;;;5.03;2.60;;;17.40;73.00;;;;;;10332020;28;20031;-57
2021/11/03 22:24:08;;;;;;;4.15;2.50;;;17.50;72.70;;;;;;10332955;28;20391;-58
2021/11/03 22:29:08;;;;;;;5.45;2.47;;;17.50;72.40;;;;;;10332525;28;20034;-57
2021/11/03 22:34:09;;;;;;;3.42;2.45;;;17.60;72.30;;;;;;10332490;28;20114;-55
2021/11/03 22:39:10;;;;;;;3.50;2.38;;;17.70;72.00;;;;;;10332404;28;20073;-57
2021/11/03 22:44:11;;;;;;;3.35;2.20;;;17.70;71.90;;;;;;10330859;28;20030;-57
2021/11/03 22:49:12;;;;;;;3.80;1.95;;;17.70;71.80;;;;;;10332116;28;20037;-57
2021/11/03 22:54:13;;;;;;;3.45;2.42;;;17.60;71.80;;;;;;10330437;28;20482;-58
2021/11/03 22:59:13;;;;;;;3.45;2.72;;;17.70;71.70;;;;;;10331841;28;20033;-57
2021/11/03 23:04:14;;;;;;;3.90;2.45;;;17.70;71.70;;;;;;10334849;28;20026;-57
2021/11/03 23:09:15;;;;;;;4.00;2.40;;;17.70;71.70;;;;;;10372184;28;20081;-57
2021/11/03 23:14:15;;;;;;;2.92;2.20;;;17.70;71.80;;;;;;10336740;28;20034;-57
2021/11/03 23:19:17;;;;;;;2.88;2.15;;;17.60;71.90;;;;;;10338585;28;20133;-58
2021/11/03 23:24:18;;;;;;;3.55;2.47;;;17.60;72.00;;;;;;10348676;28;20084;-56
2021/11/03 23:29:20;;;;;;;3.13;2.10;;;17.60;71.90;;;;;;10356902;28;20077;-58
2021/11/03 23:34:21;;;;;;;6.45;2.60;;;17.70;71.50;;;;;;10339225;28;20027;-57
2021/11/03 23:39:22;;;;;;;2.67;2.10;;;17.70;71.40;;;;;;10339421;28;20042;-57
2021/11/03 23:44:22;;;;;;;3.20;2.13;;;17.70;71.40;;;;;;10338644;28;20141;-58
2021/11/03 23:49:23;;;;;;;3.97;2.40;;;17.70;71.40;;;;;;10338795;28;20048;-57
2021/11/03 23:54:24;;;;;;;3.65;2.35;;;17.70;71.50;;;;;;10338559;28;20085;-58
2021/11/03 23:59:26;;;;;;;4.18;2.30;;;17.60;71.60;;;;;;10338081;28;20065;-57
